Flight Track Log - Related Links

Times and Time Zones

All times are in EDT time to prevent confusion due to time zone crossing. See the HPN8 flight status page for this flight to view local times or setup timezone preferences in your user account.

Time Position Orientation Groundspeed Altitude Reporting Facility
EDT Latitude Longitude Course Direction KTS MPH feet Rate Location/Type
Thu 11:33:09 AM 42.4667 -71.3167 270° West 145 167 1,700  Level KA90
Thu 11:34:09 AM 42.4667 -71.3833 270° West 178 205 3,100 700 Climbing KA90
Thu 11:35:09 AM 42.4167 -71.4333 216° Southwest 210 242 3,100 199 Level KA90
Thu 11:36:40 AM 42.3442 -71.4850 208° Southwest 223 257 3,600 1,232 Climbing Boston Center
Thu 11:37:40 AM 42.2922 -71.4914 185° South 216 249 6,200 2,850 Climbing Boston Center
Thu 11:38:40 AM 42.2739 -71.5478 246° West 167 192 9,300 2,800 Climbing Boston Center
Thu 11:39:40 AM 42.2847 -71.6122 283° West 148 170 11,800 2,500 Climbing Boston Center
Thu 11:40:40 AM 42.2789 -71.6683 262° West 153 176 14,300 2,150 Climbing Boston Center
Thu 11:41:40 AM 42.2731 -71.7161 261° West 153 176 16,100 900 Climbing Boston Center
Thu 11:42:40 AM 42.2650 -71.7864 261° West 164 189 16,100  Level Boston Center
Thu 11:43:40 AM 42.2553 -71.8792 262° West 208 239 16,100  Level Boston Center
Thu 11:44:40 AM 42.2453 -71.9717 262° West 254 292 16,100  Level Boston Center
Thu 11:45:40 AM 42.2331 -72.0756 261° West 260 299 16,100  Level Boston Center
Thu 11:46:40 AM 42.2250 -72.1625 263° West 260 299 16,100  Level Boston Center
Thu 11:47:40 AM 42.2128 -72.2664 261° West 260 299 16,100  Level Boston Center
Thu 11:48:40 AM 42.2044 -72.3503 262° West 260 299 16,100 -50 Level Boston Center
Thu 11:49:40 AM 42.1900 -72.4569 260° West 260 299 16,000 -50 Descending Boston Center
Thu 11:50:40 AM 42.1814 -72.5408 262° West 252 290 16,000 -650 Level Boston Center
Thu 11:51:40 AM 42.1731 -72.6194 262° West 214 246 14,700 -1,000 Descending Boston Center
Thu 11:52:40 AM 42.1625 -72.7061 261° West 216 249 14,000 -350 Descending Boston Center
Thu 11:53:40 AM 42.1561 -72.7958 265° West 253 291 14,000  Level Boston Center
Thu 11:54:40 AM 42.1514 -72.8936 266° West 275 316 14,000  Level Boston Center
Thu 11:55:40 AM 42.1447 -73.0142 266° West 292 336 14,000  Level Boston Center
Thu 11:56:40 AM 42.1358 -73.1289 264° West 292 336 14,000  Level Boston Center
Thu 11:57:40 AM 42.1267 -73.2406 264° West 292 336 14,000  Level Boston Center
Thu 11:58:40 AM 42.1194 -73.3497 265° West 299 344 14,000 50 Level Boston Center
Thu 11:59:40 AM 42.1122 -73.4617 265° West 299 344 14,100 50 Climbing Boston Center
Thu 12:00:40 PM 42.1031 -73.5733 264° West 299 344 14,100  Level Boston Center
Thu 12:01:40 PM 42.0956 -73.6822 265° West 294 338 14,100  Level Boston Center
Thu 12:02:40 PM 42.0881 -73.7886 265° West 288 331 14,100  Level Boston Center
Thu 12:03:40 PM 42.0783 -73.9003 263° West 304 350 14,100  Level Boston Center
Thu 12:04:40 PM 42.0686 -74.0092 263° West 304 350 14,100  Level Boston Center
Thu 12:05:40 PM 42.0628 -74.1153 266° West 296 341 14,100  Level Boston Center
Thu 12:06:40 PM 42.0550 -74.2156 264° West 279 321 14,100 -550 Level Boston Center
Thu 12:07:40 PM 42.0244 -74.3125 247° West 286 329 13,000 -1,000 Descending Boston Center
Thu 12:08:40 PM 41.9508 -74.3522 202° Southwest 285 328 12,100 -450 Descending Boston Center
Thu 12:09:40 PM 41.8667 -74.3886 198° South 305 351 12,100 -550 Level Boston Center
Thu 12:10:40 PM 41.7847 -74.4253 198° South 310 357 11,000 -1,150 Descending Boston Center
Thu 12:11:40 PM 41.7133 -74.4592 200° South 294 338 9,800 -1,050 Descending Boston Center
Thu 12:12:40 PM 41.6397 -74.4928 199° South 288 331 8,900 -1,000 Descending Boston Center
Thu 12:13:40 PM 41.5664 -74.5239 198° South 283 326 7,800 -1,050 Descending Boston Center
Thu 12:14:40 PM 41.4947 -74.5547 198° South 283 326 6,800 -850 Descending Boston Center
Thu 12:15:40 PM 41.4272 -74.5997 207° Southwest 277 319 6,100 -328 Descending Boston Center
Thu 12:16:48 PM 41.3333 -74.6167 188° South 277 319 6,100  Level New York TRACON
Thu 12:17:48 PM 41.2667 -74.6500 201° Southwest 272 313 6,100 -50 Level New York TRACON
Thu 12:18:48 PM 41.1833 -74.6167 163° South 278 320 6,000 -600 Descending New York TRACON
Thu 12:19:48 PM 41.1167 -74.6000 169° South 270 311 4,900 -950 Descending New York TRACON
Thu 12:20:48 PM 41.0500 -74.5833 169° South 246 283 4,100 -400 Descending New York TRACON
Thu 12:21:48 PM 40.9833 -74.5667 169° South 220 253 4,100 -50 Level New York TRACON
Thu 12:22:48 PM 40.9333 -74.5500 166° South 232 267 4,000 -500 Descending New York TRACON
Thu 12:23:48 PM 40.8667 -74.5167 159° South 220 253 3,100 -450 Descending New York TRACON
Thu 12:24:48 PM 40.8167 -74.5000 166° South 217 250 3,100  Level New York TRACON
Thu 12:25:48 PM 40.7500 -74.4833 169° South 212 244 3,100 -250 Level New York TRACON
Thu 12:26:48 PM 40.7000 -74.4667 166° South 204 235 2,600 -500 Descending New York TRACON
Thu 12:27:48 PM 40.6500 -74.4333 153° Southeast 192 221 2,100 -250 Descending New York TRACON
Thu 12:28:48 PM 40.6500 -74.3667 90° East 192 221 2,100  Level New York TRACON
Thu 12:29:48 PM 40.6667 -74.3000 72° East 186 214 2,100  Level New York TRACON
Thu 12:30:48 PM 40.7000 -74.2667 37° Northeast 182 209 2,100 -250 Level New York TRACON
Thu 12:31:48 PM 40.7500 -74.2167 37° Northeast 198 228 1,600 -250 Descending New York TRACON
Thu 12:32:48 PM 40.7833 -74.1667 49° Northeast 166 191 1,600 -104 Level New York TRACON
Thu 12:33:43 PM 40.8000 -74.1333 57° Northeast 143 165 1,400 -300 Descending New York TRACON
Thu 12:34:48 PM 40.8167 -74.0833 66° East 127 146 1,000 -369 Descending New York TRACON

Login

Don't have an account? Register now (free) for customized features, flight alerts, and more!